createdAt,value
2018-07-27T00:00:29.208Z,3.50
2018-07-27T00:01:29.181Z,3.20
2018-07-27T00:02:29.148Z,3.20
2018-07-27T00:03:29.125Z,3.70
2018-07-27T00:04:29.093Z,3.70
2018-07-27T00:05:29.064Z,3.60
2018-07-27T00:06:29.036Z,3.90
2018-07-27T00:07:29.002Z,3.60
2018-07-27T00:08:28.974Z,3.80
2018-07-27T00:09:28.947Z,3.70
2018-07-27T00:10:28.919Z,3.80
2018-07-27T00:11:28.887Z,3.70
2018-07-27T00:12:28.858Z,3.80
2018-07-27T00:13:28.829Z,3.70
2018-07-27T00:14:28.796Z,3.90
2018-07-27T00:15:28.774Z,3.70
2018-07-27T00:16:28.743Z,4.00
2018-07-27T00:17:28.714Z,3.60
2018-07-27T00:18:28.689Z,3.50
2018-07-27T00:19:28.650Z,3.40
2018-07-27T00:20:28.623Z,3.30
2018-07-27T00:21:28.593Z,3.70
2018-07-27T00:22:28.562Z,3.60
2018-07-27T00:23:28.538Z,3.50
2018-07-27T00:24:28.511Z,3.40
2018-07-27T00:25:28.476Z,3.50
2018-07-27T00:26:28.443Z,3.50
2018-07-27T00:27:28.421Z,3.10
2018-07-27T00:28:28.388Z,3.30
2018-07-27T00:29:28.363Z,3.00
2018-07-27T00:30:28.330Z,3.00
2018-07-27T00:31:28.296Z,3.00
2018-07-27T00:32:28.269Z,3.50
2018-07-27T00:33:28.240Z,3.40
2018-07-27T00:34:28.211Z,3.10
2018-07-27T00:35:28.188Z,3.10
2018-07-27T00:36:28.156Z,3.10
2018-07-27T00:37:28.122Z,3.20
2018-07-27T00:38:28.095Z,2.90
2018-07-27T00:39:28.059Z,3.00
2018-07-27T00:40:28.034Z,3.40
2018-07-27T00:41:28.005Z,3.10
2018-07-27T00:42:27.979Z,3.20
2018-07-27T00:43:27.942Z,3.20
2018-07-27T00:44:27.915Z,3.20
2018-07-27T00:45:27.885Z,3.00
2018-07-27T00:46:27.855Z,3.30
2018-07-27T00:47:27.829Z,3.00
2018-07-27T00:48:27.798Z,3.00
2018-07-27T00:49:27.769Z,2.90
2018-07-27T00:50:27.742Z,3.20
2018-07-27T00:51:27.706Z,3.10
2018-07-27T00:52:27.678Z,3.30
2018-07-27T00:53:27.648Z,3.10
2018-07-27T00:54:27.617Z,3.30
2018-07-27T00:55:27.593Z,3.50
2018-07-27T00:56:27.563Z,3.00
2018-07-27T00:57:27.531Z,3.20
2018-07-27T00:58:27.499Z,3.40
2018-07-27T00:59:27.475Z,3.10
2018-07-27T01:00:27.445Z,3.10
2018-07-27T01:01:27.417Z,2.90
2018-07-27T01:02:27.387Z,3.30
2018-07-27T01:03:27.353Z,3.10
2018-07-27T01:04:27.325Z,3.30
2018-07-27T01:05:27.294Z,3.70
2018-07-27T01:06:27.265Z,3.10
2018-07-27T01:07:27.241Z,3.30
2018-07-27T01:08:27.208Z,3.20
2018-07-27T01:09:27.179Z,3.30
2018-07-27T01:10:27.151Z,3.10
2018-07-27T01:11:27.118Z,3.50
2018-07-27T01:12:27.090Z,3.90
2018-07-27T01:13:27.062Z,3.50
2018-07-27T01:14:27.035Z,3.10
2018-07-27T01:15:26.998Z,3.30
2018-07-27T01:16:26.972Z,3.50
2018-07-27T01:17:26.941Z,3.70
2018-07-27T01:18:26.911Z,3.10
2018-07-27T01:19:26.888Z,3.20
2018-07-27T01:20:26.854Z,3.00
2018-07-27T01:21:26.826Z,3.20
2018-07-27T01:22:26.796Z,3.30
2018-07-27T01:23:26.761Z,3.70
2018-07-27T01:24:26.733Z,3.30
2018-07-27T01:25:26.704Z,3.10
2018-07-27T01:26:26.672Z,3.50
2018-07-27T01:27:26.647Z,3.50
2018-07-27T01:28:26.617Z,3.40
2018-07-27T01:29:26.588Z,3.20
2018-07-27T01:30:26.557Z,3.20
2018-07-27T01:31:26.531Z,3.20
2018-07-27T01:32:26.501Z,3.00
2018-07-27T01:33:26.470Z,3.20
2018-07-27T01:34:26.442Z,3.30
2018-07-27T01:35:26.406Z,3.10
2018-07-27T01:36:26.379Z,3.10
2018-07-27T01:37:26.349Z,3.20
2018-07-27T01:38:26.336Z,3.30
2018-07-27T01:39:26.295Z,3.30
2018-07-27T01:40:26.264Z,3.40
2018-07-27T01:41:26.234Z,3.30
2018-07-27T01:42:26.207Z,2.90
2018-07-27T01:43:26.171Z,3.80
2018-07-27T01:44:26.144Z,3.20
2018-07-27T01:45:26.115Z,3.30
2018-07-27T01:46:26.088Z,3.60
2018-07-27T01:47:26.054Z,3.40
2018-07-27T01:48:26.024Z,3.40
2018-07-27T01:49:25.994Z,3.40
2018-07-27T01:50:25.961Z,3.20
2018-07-27T01:51:25.939Z,3.20
2018-07-27T01:52:25.907Z,3.30
2018-07-27T01:53:25.878Z,3.20
2018-07-27T01:54:25.849Z,3.40
2018-07-27T01:55:25.814Z,3.20
2018-07-27T01:56:25.787Z,3.50
2018-07-27T01:57:25.758Z,3.10
2018-07-27T01:58:25.726Z,3.50
2018-07-27T01:59:25.702Z,3.10
2018-07-27T02:00:25.670Z,3.40
2018-07-27T02:01:25.639Z,3.40
2018-07-27T02:02:25.608Z,3.20
2018-07-27T02:03:25.583Z,3.20
2018-07-27T02:04:25.551Z,3.20
2018-07-27T02:05:25.522Z,3.30
2018-07-27T02:06:25.495Z,3.40
2018-07-27T02:07:25.457Z,3.30
2018-07-27T02:08:25.436Z,3.40
2018-07-27T02:09:25.401Z,3.10
2018-07-27T02:10:25.369Z,3.70
2018-07-27T02:11:25.345Z,2.90
2018-07-27T02:12:25.314Z,3.90
2018-07-27T02:13:25.284Z,3.00
2018-07-27T02:14:25.258Z,3.40
2018-07-27T02:15:25.221Z,3.00
2018-07-27T02:16:25.193Z,3.20
2018-07-27T02:17:25.167Z,3.40
2018-07-27T02:18:25.186Z,3.10
2018-07-27T02:19:25.103Z,3.50
2018-07-27T02:20:25.074Z,3.40
2018-07-27T02:21:25.045Z,3.50
2018-07-27T02:22:25.013Z,3.10
2018-07-27T02:23:24.990Z,3.60
2018-07-27T02:24:24.969Z,3.20
2018-07-27T02:25:24.929Z,3.50
2018-07-27T02:26:24.900Z,3.60
2018-07-27T02:27:24.864Z,3.50
2018-07-27T02:28:24.836Z,3.70
2018-07-27T02:29:24.807Z,3.50
2018-07-27T02:30:24.776Z,3.40
2018-07-27T02:31:24.753Z,3.40
2018-07-27T02:32:24.724Z,3.40
2018-07-27T02:33:24.689Z,3.30
2018-07-27T02:34:24.656Z,3.40
2018-07-27T02:35:24.632Z,3.60
2018-07-27T02:36:24.601Z,3.40
2018-07-27T02:37:24.579Z,2.90
2018-07-27T02:38:24.545Z,3.50
2018-07-27T02:39:24.509Z,3.60
2018-07-27T02:40:24.481Z,3.40
2018-07-27T02:41:24.452Z,3.30
2018-07-27T02:42:24.419Z,3.80
2018-07-27T02:43:24.396Z,3.40
2018-07-27T02:44:24.364Z,3.40
2018-07-27T02:45:24.337Z,3.70
2018-07-27T02:46:24.306Z,3.40
2018-07-27T02:47:24.274Z,3.40
2018-07-27T02:48:24.242Z,3.70
2018-07-27T02:49:24.217Z,3.40
2018-07-27T02:50:24.187Z,3.70
2018-07-27T02:51:24.229Z,3.50
2018-07-27T02:52:24.123Z,3.70
2018-07-27T02:53:24.094Z,3.60
2018-07-27T02:54:24.062Z,4.00
2018-07-27T02:55:24.038Z,4.20
2018-07-27T02:56:24.008Z,3.40
2018-07-27T02:57:23.979Z,3.50
2018-07-27T02:58:23.948Z,3.80
2018-07-27T02:59:23.913Z,3.70
2018-07-27T03:00:23.885Z,3.40
2018-07-27T03:01:23.855Z,3.50
2018-07-27T03:02:23.828Z,4.00
2018-07-27T03:03:23.799Z,3.30
2018-07-27T03:04:23.771Z,3.90
2018-07-27T03:05:23.737Z,3.90
2018-07-27T03:06:23.706Z,3.30
2018-07-27T03:07:23.680Z,3.70
2018-07-27T03:08:23.650Z,3.50
2018-07-27T03:09:23.620Z,3.60
2018-07-27T03:10:23.591Z,4.10
2018-07-27T03:11:23.554Z,3.60
2018-07-27T03:12:23.527Z,3.80
2018-07-27T03:13:23.497Z,3.70
2018-07-27T03:14:23.468Z,3.90
2018-07-27T03:15:23.443Z,3.60
2018-07-27T03:16:23.413Z,3.80
2018-07-27T03:17:23.380Z,4.20
2018-07-27T03:18:23.352Z,3.90
2018-07-27T03:19:23.316Z,3.50
2018-07-27T03:20:23.287Z,3.70
2018-07-27T03:21:23.260Z,3.70
2018-07-27T03:22:23.232Z,3.80
2018-07-27T03:23:23.196Z,3.50
2018-07-27T03:24:23.168Z,3.70
2018-07-27T03:25:23.138Z,3.70
2018-07-27T03:26:23.105Z,3.70
2018-07-27T03:27:23.081Z,3.60
2018-07-27T03:28:23.050Z,4.00
2018-07-27T03:29:23.019Z,3.90
2018-07-27T03:30:22.993Z,3.60
2018-07-27T03:31:22.955Z,3.60
2018-07-27T03:32:22.927Z,3.90
2018-07-27T03:33:22.898Z,3.70
2018-07-27T03:34:22.865Z,3.80
2018-07-27T03:35:22.841Z,4.20
2018-07-27T03:36:22.809Z,3.90
2018-07-27T03:37:22.779Z,3.90
2018-07-27T03:38:22.745Z,3.80
2018-07-27T03:39:22.721Z,3.80
2018-07-27T03:40:22.689Z,3.60
2018-07-27T03:41:22.667Z,3.50
2018-07-27T03:42:22.641Z,4.00
2018-07-27T03:43:22.598Z,3.60
2018-07-27T03:44:22.566Z,3.70
2018-07-27T03:45:22.537Z,3.90
2018-07-27T03:46:22.503Z,4.00
2018-07-27T03:47:22.479Z,4.10
2018-07-27T03:48:22.450Z,3.70
2018-07-27T03:49:22.418Z,4.10
2018-07-27T03:50:22.391Z,3.80
2018-07-27T03:51:22.358Z,4.20
2018-07-27T04:08:42.234Z,3.30
2018-07-27T04:09:42.141Z,3.70
2018-07-27T04:10:42.104Z,4.10
2018-07-27T04:11:42.064Z,4.40
2018-07-27T04:12:42.030Z,4.10
2018-07-27T04:13:42.000Z,3.90
2018-07-27T04:14:41.966Z,3.90
2018-07-27T04:15:41.938Z,4.20
2018-07-27T04:16:41.896Z,4.80
2018-07-27T04:17:41.864Z,4.00
2018-07-27T04:18:41.834Z,4.00
2018-07-27T04:19:41.804Z,4.30
2018-07-27T04:20:41.774Z,4.00
2018-07-27T04:21:41.736Z,4.40
2018-07-27T04:22:41.703Z,4.10
2018-07-27T04:23:41.673Z,4.40
2018-07-27T04:24:41.639Z,4.70
2018-07-27T04:25:41.607Z,4.30
2018-07-27T04:26:41.584Z,4.10
2018-07-27T04:27:41.553Z,4.30
2018-07-27T04:28:41.522Z,4.40
2018-07-27T04:29:41.483Z,4.40
2018-07-27T04:30:41.452Z,4.10
2018-07-27T04:31:41.417Z,4.30
2018-07-27T04:32:41.396Z,4.60
2018-07-27T04:33:41.358Z,4.20
2018-07-27T04:34:41.327Z,4.20
2018-07-27T04:35:41.361Z,4.40
2018-07-27T04:36:41.267Z,4.40
2018-07-27T04:37:41.232Z,4.20
2018-07-27T04:38:41.203Z,4.20
2018-07-27T04:39:41.173Z,4.00
2018-07-27T04:40:41.144Z,4.60
2018-07-27T04:41:41.109Z,4.10
2018-07-27T04:42:41.076Z,4.10
2018-07-27T04:43:41.043Z,4.00
2018-07-27T04:44:41.022Z,4.30
2018-07-27T04:45:40.983Z,4.20
2018-07-27T04:46:40.954Z,4.30
2018-07-27T04:47:40.928Z,4.40
2018-07-27T04:48:40.890Z,4.50
2018-07-27T04:49:40.859Z,4.00
2018-07-27T04:50:40.830Z,4.40
2018-07-27T04:51:40.802Z,4.90
2018-07-27T04:52:40.772Z,4.50
2018-07-27T04:53:40.737Z,4.40
2018-07-27T04:54:40.704Z,4.60
2018-07-27T04:55:40.673Z,4.40
2018-07-27T04:56:40.714Z,4.10
2018-07-27T04:57:40.617Z,4.20
2018-07-27T04:58:40.584Z,4.40
2018-07-27T04:59:40.559Z,4.30
2018-07-27T05:00:40.525Z,4.60
2018-07-27T05:01:40.492Z,4.60
2018-07-27T05:02:40.460Z,4.50
2018-07-27T05:03:40.433Z,5.00
2018-07-27T05:04:40.432Z,4.30
2018-07-27T05:05:40.370Z,4.50
2018-07-27T05:06:40.337Z,4.30
2018-07-27T05:07:40.307Z,4.50
2018-07-27T05:08:40.274Z,4.00
2018-07-27T05:09:40.245Z,4.40
2018-07-27T05:10:40.216Z,4.40
2018-07-27T05:11:40.187Z,4.20
2018-07-27T05:12:40.162Z,4.10
2018-07-27T05:13:40.126Z,4.50
2018-07-27T05:14:40.093Z,4.40
2018-07-27T05:15:40.061Z,4.40
2018-07-27T05:16:40.034Z,4.30
2018-07-27T05:17:40.001Z,4.30
2018-07-27T05:18:39.972Z,4.40
2018-07-27T05:19:39.944Z,4.10
2018-07-27T05:20:39.908Z,4.30
2018-07-27T05:21:39.878Z,4.20
2018-07-27T05:22:39.850Z,4.50
2018-07-27T05:23:39.822Z,4.00
2018-07-27T05:24:39.860Z,4.40
2018-07-27T05:25:39.759Z,4.00
2018-07-27T05:26:39.726Z,4.00
2018-07-27T05:27:39.695Z,4.70
2018-07-27T05:28:39.667Z,4.80
2018-07-27T05:29:39.639Z,4.80
2018-07-27T05:30:39.608Z,4.10
2018-07-27T05:31:39.609Z,4.20
2018-07-27T05:32:39.551Z,4.00
2018-07-27T05:33:39.521Z,4.00
2018-07-27T05:34:39.488Z,4.10
2018-07-27T05:35:39.453Z,4.10
2018-07-27T05:36:39.431Z,3.90
2018-07-27T05:37:39.396Z,4.00
2018-07-27T05:38:39.364Z,4.00
2018-07-27T05:39:39.332Z,3.90
2018-07-27T05:40:39.302Z,4.40
2018-07-27T05:41:39.275Z,4.20
2018-07-27T05:42:39.246Z,4.10
2018-07-27T05:43:39.219Z,4.30
2018-07-27T05:44:39.190Z,4.50
2018-07-27T05:45:39.157Z,4.30
2018-07-27T05:46:39.125Z,3.90
2018-07-27T05:47:39.096Z,4.50
2018-07-27T05:48:39.121Z,4.10
2018-07-27T05:49:39.034Z,4.20
2018-07-27T05:50:39.007Z,4.00
2018-07-27T05:51:38.980Z,4.00
2018-07-27T05:52:38.996Z,4.30
2018-07-27T05:53:38.917Z,4.30
2018-07-27T05:54:38.888Z,4.40
2018-07-27T05:55:38.861Z,4.00
2018-07-27T05:56:38.831Z,4.10
2018-07-27T05:57:38.800Z,4.00
2018-07-27T05:58:38.768Z,3.80
2018-07-27T05:59:38.742Z,3.80
2018-07-27T06:00:38.715Z,4.40
2018-07-27T06:01:38.684Z,3.80
2018-07-27T06:02:38.686Z,3.90
2018-07-27T06:03:38.661Z,3.90
2018-07-27T06:04:38.592Z,4.30
2018-07-27T06:05:38.564Z,4.00
2018-07-27T06:06:38.536Z,4.10
2018-07-27T06:07:38.511Z,4.00
2018-07-27T06:08:38.527Z,3.90
2018-07-27T06:09:38.447Z,4.10
2018-07-27T06:10:38.419Z,4.10
2018-07-27T06:11:38.396Z,4.10
2018-07-27T06:12:38.364Z,3.50
2018-07-27T06:13:38.333Z,3.80
2018-07-27T06:14:38.310Z,3.90
2018-07-27T06:15:38.277Z,3.90
2018-07-27T06:16:38.244Z,3.40
2018-07-27T06:17:38.215Z,3.90
2018-07-27T06:18:38.190Z,3.80
2018-07-27T06:19:38.164Z,3.70
2018-07-27T06:20:38.133Z,3.90
2018-07-27T06:21:38.103Z,3.80
2018-07-27T06:22:38.074Z,4.00
2018-07-27T06:23:38.044Z,3.70
2018-07-27T06:24:38.021Z,4.00
2018-07-27T06:25:38.003Z,4.20
2018-07-27T06:26:37.958Z,3.90
2018-07-27T06:27:37.930Z,4.00
2018-07-27T06:28:37.900Z,4.20
2018-07-27T06:29:37.874Z,4.30
2018-07-27T06:30:37.847Z,3.80
2018-07-27T06:31:37.820Z,4.30
2018-07-27T06:32:37.791Z,3.60
2018-07-27T06:33:37.761Z,3.80
2018-07-27T06:34:37.734Z,4.10
2018-07-27T06:35:37.701Z,3.70
2018-07-27T06:36:37.676Z,3.80
2018-07-27T06:37:37.647Z,3.80
2018-07-27T06:38:37.622Z,3.70
2018-07-27T06:39:37.596Z,4.20
2018-07-27T06:40:37.562Z,3.90
2018-07-27T06:41:37.535Z,4.10
2018-07-27T06:42:37.512Z,3.80
2018-07-27T06:43:37.482Z,4.00
2018-07-27T06:44:37.456Z,4.00
2018-07-27T06:45:37.424Z,3.20
2018-07-27T06:46:37.395Z,3.60
2018-07-27T06:47:37.365Z,3.80
2018-07-27T06:48:37.337Z,3.70
2018-07-27T06:49:37.310Z,3.60
2018-07-27T06:50:37.284Z,3.60
2018-07-27T06:51:37.259Z,3.90
2018-07-27T06:52:37.235Z,3.50
2018-07-27T06:53:37.202Z,3.50
2018-07-27T06:54:37.174Z,4.00
2018-07-27T06:55:37.143Z,3.60
2018-07-27T06:56:37.122Z,3.80
2018-07-27T06:57:37.092Z,4.00
2018-07-27T06:58:37.062Z,3.70
2018-07-27T06:59:37.032Z,3.80
2018-07-27T07:00:37.005Z,4.10
2018-07-27T07:01:36.978Z,3.90
2018-07-27T07:02:36.954Z,3.60
2018-07-27T07:03:36.931Z,4.10
2018-07-27T07:04:36.901Z,3.70
2018-07-27T07:05:36.870Z,4.10
2018-07-27T07:06:36.841Z,3.80
2018-07-27T07:07:36.812Z,3.80
2018-07-27T07:08:36.785Z,3.90
2018-07-27T07:09:36.757Z,4.00
2018-07-27T07:10:36.735Z,3.90
2018-07-27T07:11:36.711Z,4.10
2018-07-27T07:12:36.678Z,3.70
2018-07-27T07:13:36.650Z,3.90
2018-07-27T07:14:36.686Z,4.00
2018-07-27T07:15:36.602Z,3.90
2018-07-27T07:16:36.575Z,3.80
2018-07-27T07:17:36.544Z,3.90
2018-07-27T07:18:36.517Z,3.90
2018-07-27T07:19:36.489Z,3.70
2018-07-27T07:20:36.458Z,3.90
2018-07-27T07:21:36.434Z,3.80
2018-07-27T07:22:36.408Z,4.10
2018-07-27T07:23:36.383Z,4.00
2018-07-27T07:24:36.357Z,4.30
2018-07-27T07:25:36.441Z,4.20
2018-07-27T07:26:36.298Z,4.00
2018-07-27T07:27:36.269Z,4.00
2018-07-27T07:28:36.248Z,4.20
2018-07-27T07:29:36.220Z,4.20
2018-07-27T07:30:36.192Z,4.30
2018-07-27T07:31:36.162Z,3.90
2018-07-27T07:32:36.140Z,3.90
2018-07-27T07:33:36.111Z,4.10
2018-07-27T07:34:36.086Z,4.70
2018-07-27T07:35:36.061Z,4.10
2018-07-27T07:36:36.034Z,4.20
2018-07-27T07:37:36.006Z,3.90
2018-07-27T07:38:35.977Z,4.20
2018-07-27T07:39:35.947Z,4.00
2018-07-27T07:40:35.922Z,3.90
2018-07-27T07:41:35.898Z,4.00
2018-07-27T07:42:35.878Z,4.30
2018-07-27T07:43:35.849Z,4.20
2018-07-27T07:44:35.816Z,3.90
2018-07-27T07:45:35.792Z,4.00
2018-07-27T07:46:35.765Z,3.80
2018-07-27T07:47:35.749Z,4.20
2018-07-27T07:48:35.716Z,4.30
2018-07-27T07:49:35.685Z,4.30
2018-07-27T07:50:35.657Z,4.00
2018-07-27T07:51:35.631Z,4.10
2018-07-27T07:52:35.607Z,4.10
2018-07-27T07:53:35.577Z,4.00
2018-07-27T07:54:35.555Z,4.00
2018-07-27T07:55:35.538Z,4.10
2018-07-27T07:56:35.504Z,4.30
2018-07-27T07:57:35.474Z,3.80
2018-07-27T07:58:35.496Z,4.20
2018-07-27T07:59:35.421Z,4.00
2018-07-27T08:00:35.404Z,3.90
2018-07-27T08:01:35.369Z,4.50
2018-07-27T08:02:35.347Z,4.20
2018-07-27T08:03:35.313Z,4.10
2018-07-27T08:04:35.288Z,3.90
2018-07-27T08:05:35.279Z,3.90
2018-07-27T08:06:35.238Z,4.00
2018-07-27T08:07:35.217Z,4.70
2018-07-27T08:08:35.188Z,3.80
2018-07-27T08:09:35.159Z,4.20
2018-07-27T08:10:35.135Z,4.40
2018-07-27T08:11:35.106Z,4.00
2018-07-27T08:12:35.081Z,3.50
2018-07-27T08:13:35.054Z,4.50
2018-07-27T08:14:35.030Z,4.00
2018-07-27T08:15:35.006Z,4.10
2018-07-27T08:16:34.972Z,4.20
2018-07-27T08:17:34.947Z,4.10
2018-07-27T08:18:34.926Z,4.20
2018-07-27T08:19:34.902Z,3.90
2018-07-27T08:20:34.877Z,4.30
2018-07-27T08:21:34.845Z,3.90
2018-07-27T08:22:34.818Z,4.30
2018-07-27T08:23:34.791Z,4.00
2018-07-27T08:24:34.768Z,4.00
2018-07-27T08:25:34.739Z,3.80
2018-07-27T08:26:34.724Z,3.90
2018-07-27T08:27:34.691Z,4.20
2018-07-27T08:28:34.666Z,3.70
2018-07-27T08:29:34.643Z,4.00
2018-07-27T08:30:34.610Z,3.80
2018-07-27T08:31:34.583Z,3.50
2018-07-27T08:32:34.562Z,3.80
2018-07-27T08:33:34.536Z,3.50
2018-07-27T08:34:34.511Z,3.90
2018-07-27T08:35:34.479Z,4.80
2018-07-27T08:36:34.453Z,4.40
2018-07-27T08:37:34.434Z,3.80
2018-07-27T08:38:34.407Z,3.90
2018-07-27T08:39:34.443Z,3.80
2018-07-27T08:40:34.355Z,3.50
2018-07-27T08:41:34.332Z,3.90
2018-07-27T08:42:34.300Z,4.10
2018-07-27T08:43:34.272Z,3.80
2018-07-27T08:44:34.246Z,4.00
2018-07-27T08:45:34.223Z,4.20
2018-07-27T08:46:34.199Z,3.90
2018-07-27T08:47:34.176Z,4.10
2018-07-27T08:48:34.144Z,4.00
2018-07-27T08:49:34.119Z,4.00
2018-07-27T08:50:34.097Z,3.70
2018-07-27T08:51:34.073Z,4.20
2018-07-27T08:52:34.048Z,3.90
2018-07-27T08:53:34.020Z,4.20
2018-07-27T08:54:33.992Z,3.70
2018-07-27T08:55:33.964Z,3.70
2018-07-27T08:56:33.939Z,3.90
2018-07-27T08:57:33.914Z,3.70
2018-07-27T08:58:33.894Z,3.70
2018-07-27T08:59:33.871Z,3.80
2018-07-27T09:00:33.843Z,4.20
2018-07-27T09:01:33.814Z,4.00
2018-07-27T09:02:33.795Z,3.80
2018-07-27T09:03:33.760Z,4.30
2018-07-27T09:04:33.740Z,4.00
2018-07-27T09:05:33.712Z,3.70
2018-07-27T09:06:33.688Z,3.70
2018-07-27T09:07:33.656Z,3.70
2018-07-27T09:08:33.632Z,3.50
2018-07-27T09:09:33.607Z,4.00
2018-07-27T09:10:33.585Z,3.80
2018-07-27T09:11:33.561Z,4.00
2018-07-27T09:12:33.535Z,3.70
2018-07-27T09:13:33.512Z,3.70
2018-07-27T09:14:33.480Z,3.70
2018-07-27T09:15:33.454Z,3.70
2018-07-27T09:16:33.435Z,3.90
2018-07-27T09:17:33.407Z,3.80
2018-07-27T09:18:33.381Z,3.70
2018-07-27T09:19:33.357Z,3.80
2018-07-27T09:20:33.330Z,4.00
2018-07-27T09:21:33.303Z,3.90
2018-07-27T09:22:33.279Z,4.00
2018-07-27T09:23:33.261Z,4.00
2018-07-27T09:24:33.284Z,3.80
2018-07-27T09:25:33.203Z,3.90
2018-07-27T09:26:33.177Z,3.80
2018-07-27T09:27:33.152Z,4.20
2018-07-27T09:28:33.126Z,3.60
2018-07-27T09:29:33.100Z,3.80
2018-07-27T09:30:33.079Z,4.10
2018-07-27T09:31:33.054Z,3.80
2018-07-27T09:32:33.029Z,4.50
2018-07-27T09:33:33.001Z,4.20
2018-07-27T09:34:32.973Z,4.00
2018-07-27T09:35:33.016Z,3.90
2018-07-27T09:36:32.936Z,3.90
2018-07-27T09:37:32.902Z,3.80
2018-07-27T09:38:32.873Z,3.90
2018-07-27T09:39:32.849Z,4.10
2018-07-27T09:40:32.873Z,3.70
2018-07-27T09:41:32.798Z,3.80
2018-07-27T09:42:32.777Z,4.30
2018-07-27T09:43:32.754Z,3.90
2018-07-27T09:44:32.728Z,3.80
2018-07-27T09:45:32.699Z,4.30
2018-07-27T09:46:32.677Z,3.90
2018-07-27T09:47:32.646Z,3.70
2018-07-27T09:48:32.621Z,4.30
2018-07-27T09:49:32.597Z,4.10
2018-07-27T09:50:32.576Z,3.70
2018-07-27T09:51:32.577Z,4.10
2018-07-27T09:52:32.520Z,3.50
2018-07-27T09:53:32.496Z,3.50
2018-07-27T09:54:32.475Z,3.70
2018-07-27T09:55:32.452Z,3.90
2018-07-27T09:56:32.430Z,4.20
2018-07-27T09:57:32.505Z,4.10
2018-07-27T09:58:32.372Z,3.80
2018-07-27T09:59:32.344Z,4.50
2018-07-27T10:00:32.320Z,4.90
2018-07-27T10:01:32.298Z,4.00
2018-07-27T10:02:32.274Z,3.40
2018-07-27T10:03:32.251Z,3.10
2018-07-27T10:04:32.226Z,3.50
2018-07-27T10:05:32.199Z,3.00
2018-07-27T10:06:32.174Z,3.00
2018-07-27T10:07:32.145Z,3.10
2018-07-27T10:21:33.380Z,3.10
2018-07-27T10:22:33.318Z,3.80
2018-07-27T10:23:33.285Z,3.70
2018-07-27T10:24:33.255Z,4.10
2018-07-27T10:25:33.224Z,3.80
2018-07-27T10:26:33.201Z,3.60
2018-07-27T10:27:33.176Z,4.20
2018-07-27T10:28:33.151Z,4.10
2018-07-27T10:29:33.124Z,3.80
2018-07-27T10:30:33.092Z,3.90
2018-07-27T10:31:33.067Z,4.10
2018-07-27T10:32:33.040Z,5.10
2018-07-27T10:33:33.019Z,4.80
2018-07-27T10:34:32.991Z,4.20
2018-07-27T10:35:32.966Z,4.40
2018-07-27T10:36:32.945Z,4.00
2018-07-27T10:37:32.911Z,4.20
2018-07-27T10:38:32.920Z,4.20
2018-07-27T10:39:32.859Z,3.90
2018-07-27T10:40:32.836Z,4.10
2018-07-27T10:41:32.817Z,4.00
2018-07-27T10:42:32.789Z,3.90
2018-07-27T10:43:32.762Z,4.00
2018-07-27T10:44:32.733Z,4.10
2018-07-27T10:45:32.707Z,4.50
2018-07-27T10:46:32.687Z,4.50
2018-07-27T10:47:32.663Z,4.30
2018-07-27T10:48:32.637Z,3.90
2018-07-27T10:49:32.606Z,4.20
2018-07-27T10:50:32.583Z,4.30
2018-07-27T10:51:32.564Z,4.30
2018-07-27T10:52:32.536Z,4.30
2018-07-27T10:53:32.517Z,3.80
2018-07-27T10:54:32.494Z,4.00
2018-07-27T10:55:32.461Z,4.20
2018-07-27T10:56:32.502Z,4.80
2018-07-27T10:57:32.409Z,3.90
2018-07-27T10:58:32.385Z,3.60
2018-07-27T10:59:32.360Z,4.00
2018-07-27T11:00:32.339Z,3.80
2018-07-27T11:01:32.316Z,4.00
2018-07-27T11:02:32.316Z,3.90
2018-07-27T11:03:32.265Z,4.40
2018-07-27T11:04:32.240Z,4.00
2018-07-27T11:05:32.219Z,3.80
2018-07-27T11:06:32.193Z,3.80
2018-07-27T11:07:32.166Z,4.60
2018-07-27T11:08:32.139Z,4.00
2018-07-27T11:09:32.116Z,4.00
2018-07-27T11:10:32.096Z,4.50
2018-07-27T11:11:32.066Z,4.80
2018-07-27T11:12:32.044Z,5.50
2018-07-27T11:13:32.026Z,5.90
2018-07-27T11:14:31.998Z,4.30
2018-07-27T11:15:31.970Z,4.00
2018-07-27T11:16:31.946Z,4.40
2018-07-27T11:17:31.997Z,4.10
2018-07-27T11:18:31.900Z,4.00
2018-07-27T11:19:31.875Z,4.40
2018-07-27T11:20:31.846Z,4.10
2018-07-27T11:21:31.820Z,4.00
2018-07-27T11:22:31.801Z,3.90
2018-07-27T11:23:31.772Z,4.00
2018-07-27T11:24:31.754Z,3.70
2018-07-27T11:25:31.733Z,3.90
2018-07-27T11:26:31.707Z,4.20
2018-07-27T11:27:31.677Z,4.20
2018-07-27T11:28:31.652Z,3.80
2018-07-27T11:29:31.625Z,4.10
2018-07-27T11:30:31.603Z,3.80
2018-07-27T11:31:31.578Z,4.40
2018-07-27T11:32:31.559Z,4.00
2018-07-27T11:33:31.541Z,4.00
2018-07-27T11:34:31.504Z,3.80
2018-07-27T11:35:31.481Z,3.90
2018-07-27T11:36:31.460Z,4.00
2018-07-27T11:37:33.238Z,4.00
2018-07-27T11:38:31.412Z,4.50
2018-07-27T11:39:31.386Z,4.00
2018-07-27T11:40:31.360Z,3.90
2018-07-27T11:41:31.335Z,3.90
2018-07-27T11:42:31.317Z,4.30
2018-07-27T11:43:31.288Z,3.80
2018-07-27T11:44:31.267Z,4.10
2018-07-27T11:45:31.245Z,4.10
2018-07-27T11:46:31.220Z,4.10
2018-07-27T11:47:31.196Z,4.10
2018-07-27T11:48:31.177Z,4.30
2018-07-27T11:49:31.171Z,4.10
2018-07-27T11:50:31.123Z,3.80
2018-07-27T11:51:31.106Z,4.20
2018-07-27T11:52:31.072Z,4.00
2018-07-27T11:53:31.044Z,3.70
2018-07-27T11:54:31.026Z,4.20
2018-07-27T11:55:30.997Z,4.00
2018-07-27T11:56:30.975Z,4.00
2018-07-27T11:57:30.953Z,3.90
2018-07-27T11:58:30.928Z,3.80
2018-07-27T11:59:30.902Z,4.10
2018-07-27T12:00:30.877Z,4.00
2018-07-27T12:01:30.855Z,3.90
2018-07-27T12:02:30.826Z,3.80
2018-07-27T12:03:30.805Z,3.90
2018-07-27T12:04:30.781Z,4.10
2018-07-27T12:05:30.758Z,4.20
2018-07-27T12:06:30.729Z,3.80
2018-07-27T12:07:30.706Z,4.10
2018-07-27T12:08:30.686Z,3.60
2018-07-27T12:09:30.665Z,4.10
2018-07-27T12:10:30.639Z,3.80
2018-07-27T12:11:30.615Z,3.60
2018-07-27T12:12:30.586Z,4.00
2018-07-27T12:13:30.562Z,4.00
2018-07-27T12:14:30.680Z,3.90
2018-07-27T12:15:30.513Z,3.80
2018-07-27T12:16:30.492Z,4.20
2018-07-27T12:17:30.472Z,4.50
2018-07-27T12:18:30.449Z,4.20
2018-07-27T12:19:30.420Z,4.20
2018-07-27T12:20:30.446Z,4.20
2018-07-27T12:21:30.446Z,4.30
2018-07-27T12:22:30.350Z,5.30
2018-07-27T12:23:30.324Z,4.30
2018-07-27T12:24:30.300Z,3.90
2018-07-27T12:25:30.282Z,4.30
2018-07-27T12:26:30.251Z,3.70
2018-07-27T12:27:30.227Z,4.40
2018-07-27T12:28:30.210Z,4.10
2018-07-27T12:29:30.183Z,3.80
2018-07-27T12:30:30.159Z,3.60
2018-07-27T12:31:30.133Z,3.50
2018-07-27T12:32:30.107Z,3.80
2018-07-27T12:33:30.083Z,3.80
2018-07-27T12:34:30.061Z,3.30
2018-07-27T12:35:30.039Z,3.40
2018-07-27T12:36:30.014Z,3.90
2018-07-27T12:37:29.995Z,3.90
2018-07-27T12:38:29.963Z,3.90
2018-07-27T12:39:29.941Z,3.60
2018-07-27T12:40:29.920Z,3.80
2018-07-27T12:41:29.898Z,3.40
2018-07-27T12:42:29.878Z,3.50
2018-07-27T12:43:29.849Z,3.90
2018-07-27T12:44:29.828Z,4.00
2018-07-27T12:45:29.797Z,4.10
2018-07-27T12:46:29.774Z,3.90
2018-07-27T12:47:29.752Z,4.00
2018-07-27T12:48:29.730Z,3.60
2018-07-27T12:49:29.710Z,4.10
2018-07-27T12:50:29.690Z,3.90
2018-07-27T12:51:29.659Z,3.40
2018-07-27T12:52:29.633Z,3.90
2018-07-27T12:53:29.609Z,3.60
2018-07-27T12:54:29.596Z,3.90
2018-07-27T12:55:29.563Z,3.50
2018-07-27T12:56:29.539Z,3.80
2018-07-27T12:57:29.514Z,3.40
2018-07-27T12:58:29.491Z,3.40
2018-07-27T12:59:29.491Z,3.90
2018-07-27T13:00:29.448Z,3.80
2018-07-27T13:01:29.429Z,3.80
2018-07-27T13:02:29.401Z,3.30
2018-07-27T13:03:29.378Z,4.00
2018-07-27T13:04:29.352Z,3.70
2018-07-27T13:05:29.380Z,3.50
2018-07-27T13:06:29.299Z,3.60
2018-07-27T13:07:29.278Z,3.70
2018-07-27T13:08:29.257Z,3.90
2018-07-27T13:09:29.236Z,3.80
2018-07-27T13:10:29.206Z,3.70
2018-07-27T13:11:29.188Z,3.70
2018-07-27T13:12:29.169Z,3.90
2018-07-27T13:13:29.142Z,3.80
2018-07-27T13:14:29.117Z,3.50
2018-07-27T13:15:29.094Z,4.00
2018-07-27T13:16:29.065Z,3.90
2018-07-27T13:17:29.040Z,4.10
2018-07-27T13:18:29.019Z,3.90
2018-07-27T13:19:29.001Z,3.80
2018-07-27T13:20:28.973Z,3.90
2018-07-27T13:21:28.953Z,3.60
2018-07-27T13:22:29.013Z,3.80
2018-07-27T13:23:28.906Z,4.10
2018-07-27T13:25:28.907Z,3.20
2018-07-27T13:26:28.878Z,3.40
2018-07-27T13:27:28.815Z,3.50
2018-07-27T13:28:28.781Z,3.90
2018-07-27T13:29:28.756Z,3.70
2018-07-27T13:30:28.778Z,4.00
2018-07-27T13:31:28.736Z,3.60
2018-07-27T13:32:28.689Z,3.60
2018-07-27T13:33:28.670Z,3.60
2018-07-27T13:34:28.666Z,3.60
2018-07-27T13:35:28.621Z,3.50
2018-07-27T13:36:28.592Z,3.40
2018-07-27T13:37:28.572Z,3.20
2018-07-27T13:38:28.545Z,3.50
2018-07-27T13:39:28.564Z,3.50
2018-07-27T13:40:28.499Z,3.30
2018-07-27T13:41:28.478Z,3.20
2018-07-27T13:42:28.455Z,3.70
2018-07-27T13:43:28.425Z,4.60
2018-07-27T13:44:28.458Z,4.00
2018-07-27T13:45:28.384Z,3.80
2018-07-27T13:46:28.374Z,4.30
2018-07-27T13:47:28.335Z,4.60
2018-07-27T13:48:28.309Z,4.10